Albany, Kentucky
Current Conditions -  °F | °C
As of 10:34 AM on Friday 31 Oct 2014 (Local Time) from KEKQ Reporting Station
Haze Haze  
Wind Chill: 46°   Ceiling: 2600
Heat Index: 46°   Visibility: 6mi
Dew Point: 45°   Wind: 0mph
Humidity: 93%   Direction: NA
Pressure: 30.01"   Gusts: NA
Location:  36.69°N, 85.13°W
Report Text: KEKQ 311534Z AUTO 00000KT 6SM BR FEW005 BKN026 OVC042 08/07 A3001 RMK AO2 BKN V SCT RAE22 P0001
Loading
Personal Weather Stations






























Interactive Weather Map
Tropical Storm Tracking
New forecast layout! Learn more

10-Day Weather Forecast

Advertisements
Track Severe Weather on mobile